Time;durP1;ratioP1;P1;durP2;ratioP2;P2;SDS_P1;SDS_P2;PMS_P1;PMS_P2;Temp;Humidity;BMP_temperature;BMP_pressure;BME280_temperature;BME280_humidity;BME280_pressure;Samples;Min_cycle;Max_cycle;Signal;HPM_P1;HPM_P2
2021/03/15 00:01:50;;;;;;;1.20;0.80;;;4.40;95.90;;;;;;4987993;28;20378;-82
2021/03/15 00:04:16;;;;;;;1.10;0.73;;;4.30;95.80;;;;;;4985704;28;20077;-82
2021/03/15 00:06:43;;;;;;;3.55;0.98;;;4.30;95.90;;;;;;4974871;28;20113;-82
2021/03/15 00:09:08;;;;;;;4.57;1.15;;;4.30;95.90;;;;;;4985700;28;20041;-82
2021/03/15 00:11:34;;;;;;;4.90;1.30;;;4.30;95.90;;;;;;4955061;28;20042;-81
2021/03/15 00:14:00;;;;;;;2.35;0.82;;;4.30;96.00;;;;;;4987618;28;20058;-83
2021/03/15 00:16:26;;;;;;;4.80;0.90;;;4.30;96.00;;;;;;4975054;28;20042;-84
2021/03/15 00:18:52;;;;;;;3.17;1.20;;;4.30;96.10;;;;;;4991457;28;20018;-84
2021/03/15 00:21:18;;;;;;;2.45;0.93;;;4.30;96.40;;;;;;5003067;28;20223;-83
2021/03/15 00:23:43;;;;;;;3.28;1.10;;;4.30;96.10;;;;;;5004441;28;20046;-83
2021/03/15 00:26:09;;;;;;;3.03;1.17;;;4.30;96.10;;;;;;5008563;28;20070;-84
2021/03/15 00:28:35;;;;;;;9.40;1.20;;;4.20;96.10;;;;;;4967089;28;20065;-84
2021/03/15 00:31:01;;;;;;;3.58;1.13;;;4.30;96.20;;;;;;4995759;28;20449;-83
2021/03/15 00:33:27;;;;;;;2.80;1.40;;;4.30;96.20;;;;;;4975649;28;20532;-84
2021/03/15 00:35:52;;;;;;;7.53;1.40;;;4.20;96.20;;;;;;4964922;28;20097;-83
2021/03/15 00:38:18;;;;;;;3.47;1.55;;;4.30;96.30;;;;;;4983214;28;20397;-84
2021/03/15 00:40:44;;;;;;;5.40;1.27;;;4.30;96.30;;;;;;4961165;28;20298;-85
2021/03/15 00:43:10;;;;;;;4.63;1.25;;;4.20;96.30;;;;;;4959345;28;20342;-84
2021/03/15 00:45:36;;;;;;;3.03;1.38;;;4.30;96.30;;;;;;4963823;28;20043;-84
2021/03/15 00:48:02;;;;;;;3.40;1.05;;;4.30;96.30;;;;;;4964149;28;20039;-83
2021/03/15 00:50:31;;;;;;;4.45;1.40;;;4.30;96.30;;;;;;4957712;28;20035;-83
2021/03/15 00:52:58;;;;;;;5.40;1.50;;;4.20;96.40;;;;;;4973426;28;20054;-84
2021/03/15 00:55:24;;;;;;;4.65;1.50;;;4.30;96.40;;;;;;4979508;28;20050;-83
2021/03/15 00:57:51;;;;;;;4.55;1.58;;;4.30;96.40;;;;;;4989426;28;20041;-82
2021/03/15 01:00:24;;;;;;;4.30;1.45;;;4.30;96.50;;;;;;4964366;28;20027;-84
2021/03/15 01:02:50;;;;;;;;;;;4.30;96.50;;;;;;4977070;28;20035;-82
2021/03/15 01:05:18;;;;;;;6.68;1.25;;;4.20;96.40;;;;;;4971490;28;20119;-82
2021/03/15 01:07:44;;;;;;;4.07;1.58;;;4.20;96.40;;;;;;4982265;28;20049;-83
2021/03/15 01:10:11;;;;;;;4.82;1.67;;;4.20;96.50;;;;;;4947134;28;20039;-83
2021/03/15 01:12:38;;;;;;;6.10;2.03;;;4.20;96.50;;;;;;4971900;28;20401;-84
2021/03/15 01:15:09;;;;;;;4.28;1.50;;;4.20;96.50;;;;;;4952319;28;20046;-82
2021/03/15 01:17:35;;;;;;;3.83;1.27;;;4.20;96.50;;;;;;4980566;28;20042;-82
2021/03/15 01:20:01;;;;;;;4.28;1.63;;;4.20;96.50;;;;;;4978736;28;20404;-81
2021/03/15 01:22:29;;;;;;;4.00;1.10;;;4.20;96.50;;;;;;4984626;28;20247;-83
2021/03/15 01:24:55;;;;;;;5.05;1.70;;;4.20;96.50;;;;;;4956478;28;20038;-80
2021/03/15 01:27:21;;;;;;;4.60;1.48;;;4.10;96.50;;;;;;4990699;28;21488;-82
2021/03/15 01:29:48;;;;;;;4.20;1.45;;;4.20;96.50;;;;;;4990471;28;20506;-81
2021/03/15 01:32:13;;;;;;;2.22;1.27;;;4.10;96.50;;;;;;4990056;28;20061;-82
2021/03/15 01:34:39;;;;;;;3.33;1.25;;;4.10;96.50;;;;;;5001631;28;20074;-81
2021/03/15 01:37:05;;;;;;;4.45;1.25;;;4.10;96.50;;;;;;4987184;28;20065;-81
2021/03/15 01:39:31;;;;;;;4.68;1.58;;;4.00;96.50;;;;;;4977346;28;20045;-81
2021/03/15 01:41:59;;;;;;;2.40;1.05;;;4.00;96.50;;;;;;4990915;28;20050;-81
2021/03/15 01:44:24;;;;;;;2.60;1.33;;;4.00;96.80;;;;;;4998828;28;20034;-82
2021/03/15 01:46:51;;;;;;;4.38;1.30;;;4.00;96.60;;;;;;5004880;28;20058;-81
2021/03/15 01:49:17;;;;;;;6.38;1.58;;;3.90;96.60;;;;;;4981197;28;20041;-82
2021/03/15 01:51:43;;;;;;;2.60;1.48;;;3.80;96.60;;;;;;4994547;28;20034;-81
2021/03/15 01:54:10;;;;;;;4.28;1.80;;;3.80;96.60;;;;;;5012425;28;20038;-82
2021/03/15 01:56:36;;;;;;;4.55;1.48;;;3.80;96.60;;;;;;4980210;28;20046;-83
2021/03/15 01:59:03;;;;;;;6.25;1.63;;;3.80;96.60;;;;;;4980329;28;20106;-82
2021/03/15 02:01:29;;;;;;;6.80;2.05;;;3.80;96.70;;;;;;4995722;28;20268;-82
2021/03/15 02:03:55;;;;;;;8.27;2.30;;;3.80;96.70;;;;;;4980617;28;20065;-81
2021/03/15 02:06:21;;;;;;;3.15;1.70;;;3.70;96.70;;;;;;4963458;28;20045;-81
2021/03/15 02:08:47;;;;;;;7.82;2.08;;;3.70;96.70;;;;;;4979975;28;20460;-82
2021/03/15 02:11:34;;;;;;;5.38;1.88;;;3.60;96.60;;;;;;4961762;28;20080;-80
2021/03/15 02:14:15;;;;;;;4.60;1.63;;;3.60;96.70;;;;;;4991151;28;20466;-81
2021/03/15 02:17:03;;;;;;;3.67;1.83;;;3.60;96.70;;;;;;4979144;28;20386;-81
2021/03/15 02:19:38;;;;;;;6.18;2.17;;;3.50;96.70;;;;;;4981640;28;20361;-81
2021/03/15 02:22:19;;;;;;;7.28;1.80;;;3.60;96.80;;;;;;4978144;28;20045;-81
2021/03/15 02:25:22;;;;;;;7.72;1.95;;;3.50;96.80;;;;;;4978825;28;20347;-81
2021/03/15 02:28:12;;;;;;;;;;;3.50;96.80;;;;;;4967210;28;20046;-81
2021/03/15 02:31:14;;;;;;;4.28;1.92;;;3.50;96.80;;;;;;4967397;28;19918;-81
2021/03/15 02:34:12;;;;;;;5.43;1.75;;;3.50;96.70;;;;;;4977287;28;20034;-80
2021/03/15 02:36:43;;;;;;;5.88;1.88;;;3.50;96.70;;;;;;4974362;28;20042;-80
2021/03/15 02:39:12;;;;;;;8.32;2.20;;;3.50;96.80;;;;;;4991169;28;20037;-82
2021/03/15 02:41:40;;;;;;;8.20;2.05;;;3.50;96.80;;;;;;4978378;28;20034;-81
2021/03/15 02:44:08;;;;;;;7.18;2.20;;;3.50;96.80;;;;;;4978390;28;20528;-80
2021/03/15 02:46:36;;;;;;;6.45;2.20;;;3.50;96.90;;;;;;4956749;28;20058;-81
2021/03/15 02:49:09;;;;;;;7.57;2.25;;;3.50;96.90;;;;;;4986923;28;20041;-80
2021/03/15 02:51:38;;;;;;;4.35;1.95;;;3.50;96.90;;;;;;4976234;28;20485;-81
2021/03/15 02:54:07;;;;;;;4.63;1.80;;;3.40;96.90;;;;;;4983718;28;20045;-80
2021/03/15 02:56:38;;;;;;;6.22;2.17;;;3.40;96.90;;;;;;4977271;28;20049;-81
2021/03/15 02:59:05;;;;;;;5.20;2.40;;;3.30;96.80;;;;;;4965886;28;20053;-81
2021/03/15 03:01:33;;;;;;;6.45;2.38;;;3.40;96.90;;;;;;4988430;28;20045;-80
2021/03/15 03:03:59;;;;;;;6.45;2.40;;;3.20;96.80;;;;;;4993087;28;20496;-80
2021/03/15 03:06:30;;;;;;;5.50;2.13;;;3.20;96.80;;;;;;4985006;28;20069;-78
2021/03/15 03:09:00;;;;;;;6.78;2.53;;;3.10;96.80;;;;;;4983141;28;20038;-82
2021/03/15 03:11:28;;;;;;;7.40;2.38;;;3.10;96.80;;;;;;4990095;28;20089;-81
2021/03/15 03:13:56;;;;;;;11.07;2.60;;;3.10;96.80;;;;;;4994933;28;20034;-80
2021/03/15 03:16:26;;;;;;;12.10;2.70;;;3.00;96.80;;;;;;4967542;28;20035;-81
2021/03/15 03:18:54;;;;;;;7.30;2.50;;;3.00;96.80;;;;;;4996712;28;20053;-81
2021/03/15 03:21:25;;;;;;;7.05;2.65;;;3.00;96.80;;;;;;4979865;28;20035;-81
2021/03/15 03:23:57;;;;;;;6.57;2.40;;;2.90;96.80;;;;;;4980079;28;20026;-81
2021/03/15 03:26:26;;;;;;;8.48;2.67;;;2.80;96.90;;;;;;4984296;28;20065;-80
2021/03/15 03:28:53;;;;;;;9.10;2.70;;;2.70;96.80;;;;;;4990077;28;20117;-81
2021/03/15 03:31:21;;;;;;;14.48;3.03;;;2.70;96.80;;;;;;4991423;28;20034;-81
2021/03/15 03:33:48;;;;;;;13.82;3.38;;;2.70;96.90;;;;;;4993848;28;20042;-81
2021/03/15 03:36:15;;;;;;;13.40;3.58;;;2.70;96.90;;;;;;4978528;28;20039;-81
2021/03/15 03:38:42;;;;;;;12.68;3.00;;;2.60;96.90;;;;;;4994732;28;20381;-81
2021/03/15 03:41:09;;;;;;;11.20;3.08;;;2.60;97.00;;;;;;4972347;28;20049;-81
2021/03/15 03:43:35;;;;;;;12.65;3.50;;;2.60;97.00;;;;;;4959236;28;20117;-81
2021/03/15 03:46:01;;;;;;;16.23;3.53;;;2.60;96.90;;;;;;4968108;28;20114;-81
2021/03/15 03:48:29;;;;;;;13.25;3.75;;;2.50;97.20;;;;;;4985191;28;20074;-81
2021/03/15 03:50:56;;;;;;;13.07;4.05;;;2.50;96.90;;;;;;4984535;28;20440;-81
2021/03/15 03:53:32;;;;;;;19.52;4.35;;;2.60;97.10;;;;;;4966947;28;20045;-81
2021/03/15 03:56:11;;;;;;;27.70;4.80;;;2.60;97.10;;;;;;4965189;28;20113;-83
2021/03/15 03:58:43;;;;;;;21.00;4.68;;;2.60;97.20;;;;;;4978243;28;20729;-82
2021/03/15 04:01:11;;;;;;;20.08;5.40;;;2.70;97.30;;;;;;4990186;28;20054;-81
2021/03/15 04:03:38;;;;;;;16.27;4.78;;;2.70;97.40;;;;;;4992766;28;20444;-81
2021/03/15 04:06:06;;;;;;;22.58;5.18;;;2.80;97.70;;;;;;5023084;28;20034;-81
2021/03/15 04:08:52;;;;;;;26.02;6.10;;;2.80;97.40;;;;;;4990556;28;20125;-80
2021/03/15 04:11:20;;;;;;;23.13;5.57;;;2.80;97.50;;;;;;4988005;28;20070;-80
2021/03/15 04:13:50;;;;;;;27.10;6.15;;;2.90;97.60;;;;;;4969310;28;20045;-80
2021/03/15 04:16:18;;;;;;;21.23;5.55;;;2.90;97.60;;;;;;4984965;28;20121;-81
2021/03/15 04:18:49;;;;;;;26.05;5.82;;;2.90;97.60;;;;;;4983578;28;20069;-81
2021/03/15 04:21:18;;;;;;;33.35;6.60;;;3.00;97.60;;;;;;4987910;28;20042;-80
2021/03/15 04:23:47;;;;;;;35.88;7.45;;;2.90;97.50;;;;;;4992285;28;20404;-80
2021/03/15 04:26:14;;;;;;;22.90;6.85;;;3.00;97.50;;;;;;4996353;28;20046;-80
2021/03/15 04:28:41;;;;;;;28.35;7.30;;;3.00;97.60;;;;;;4974330;28;20061;-81
2021/03/15 04:31:09;;;;;;;28.77;6.32;;;3.10;97.60;;;;;;4993307;28;20061;-80
2021/03/15 04:33:40;;;;;;;31.23;6.18;;;3.10;97.60;;;;;;4991569;28;20046;-80
2021/03/15 04:36:07;;;;;;;22.77;6.50;;;3.10;97.60;;;;;;4995448;28;20153;-80
2021/03/15 04:38:37;;;;;;;34.10;6.22;;;3.10;97.60;;;;;;4982043;28;20054;-80
2021/03/15 04:41:04;;;;;;;26.00;6.72;;;3.00;97.50;;;;;;4991153;28;20042;-81
2021/03/15 04:43:31;;;;;;;28.02;7.57;;;3.10;97.60;;;;;;4979524;28;20803;-80
2021/03/15 04:45:57;;;;;;;34.72;7.78;;;2.90;97.50;;;;;;4971941;28;20502;-80
2021/03/15 04:48:29;;;;;;;63.72;10.15;;;3.00;97.60;;;;;;4982849;28;20058;-80
2021/03/15 04:51:03;;;;;;;46.35;9.43;;;3.00;97.60;;;;;;4989725;28;20390;-80
2021/03/15 04:53:30;;;;;;;54.40;10.05;;;3.00;97.60;;;;;;4989385;28;20034;-80
2021/03/15 04:56:00;;;;;;;53.15;10.70;;;3.10;97.60;;;;;;4994582;28;20030;-81
2021/03/15 04:58:27;;;;;;;60.50;10.93;;;3.10;97.60;;;;;;4994817;28;20042;-81
2021/03/15 05:00:56;;;;;;;69.47;12.05;;;3.20;97.60;;;;;;4995323;28;20068;-80
2021/03/15 05:03:24;;;;;;;49.72;11.65;;;3.20;97.70;;;;;;4995665;28;20084;-80
2021/03/15 05:05:52;;;;;;;56.30;11.10;;;3.20;97.70;;;;;;4996982;28;20466;-80
2021/03/15 05:08:23;;;;;;;52.15;10.80;;;3.30;98.00;;;;;;4992809;28;20613;-80
2021/03/15 05:10:50;;;;;;;56.92;11.00;;;3.30;97.70;;;;;;4993199;28;20098;-80
2021/03/15 05:13:22;;;;;;;46.13;10.73;;;3.20;97.60;;;;;;4981180;28;20043;-81
2021/03/15 05:15:50;;;;;;;56.58;11.15;;;3.30;97.70;;;;;;4987206;28;20045;-80
2021/03/15 05:18:17;;;;;;;62.83;11.52;;;3.30;97.60;;;;;;4995652;28;20463;-81
2021/03/15 05:20:46;;;;;;;52.65;11.05;;;3.40;97.70;;;;;;4976469;28;20490;-80
2021/03/15 05:23:13;;;;;;;48.63;10.18;;;3.40;97.70;;;;;;4995180;28;20180;-82
2021/03/15 05:25:42;;;;;;;44.58;10.70;;;3.50;97.70;;;;;;4957322;28;20050;-80
2021/03/15 05:28:11;;;;;;;44.05;10.35;;;3.50;97.80;;;;;;4976077;28;20039;-81
2021/03/15 05:30:39;;;;;;;42.45;9.65;;;3.50;98.10;;;;;;4982644;28;20026;-81
2021/03/15 05:33:11;;;;;;;45.67;9.23;;;3.50;97.80;;;;;;4989193;28;20490;-81
2021/03/15 05:35:40;;;;;;;49.03;9.55;;;3.50;97.80;;;;;;4989919;28;20690;-81
2021/03/15 05:38:06;;;;;;;42.33;8.60;;;3.60;97.80;;;;;;4985141;28;20037;-82
2021/03/15 05:40:33;;;;;;;48.38;9.55;;;3.60;97.80;;;;;;4980624;28;20176;-82
2021/03/15 05:43:13;;;;;;;55.63;10.73;;;3.60;97.80;;;;;;4965689;28;20034;-82
2021/03/15 05:46:04;;;;;;;58.45;10.57;;;3.60;97.80;;;;;;5000111;28;20053;-82
2021/03/15 05:49:08;;;;;;;50.70;10.45;;;3.70;97.90;;;;;;4995928;28;20555;-82
2021/03/15 05:51:58;;;;;;;48.60;9.82;;;3.80;97.90;;;;;;4981285;28;20046;-84
2021/03/15 05:54:55;;;;;;;44.30;9.00;;;3.90;97.90;;;;;;4973265;28;20046;-82
2021/03/15 05:57:57;;;;;;;52.95;8.95;;;3.90;98.00;;;;;;4979035;28;20081;-81
2021/03/15 06:00:50;;;;;;;58.67;8.43;;;4.00;98.00;;;;;;4992270;28;20405;-82
2021/03/15 06:03:44;;;;;;;40.72;8.20;;;4.00;98.00;;;;;;4983752;28;20037;-80
2021/03/15 06:06:16;;;;;;;43.40;7.60;;;4.00;97.90;;;;;;4970068;28;20041;-83
2021/03/15 06:08:46;;;;;;;48.13;6.97;;;4.00;97.90;;;;;;4983381;28;20045;-81
2021/03/15 06:11:18;;;;;;;40.67;7.18;;;4.00;97.90;;;;;;4994415;28;20026;-82
2021/03/15 06:13:45;;;;;;;51.03;8.10;;;4.10;97.90;;;;;;4988492;28;20050;-83
2021/03/15 06:16:12;;;;;;;43.53;7.18;;;4.10;97.90;;;;;;5005023;28;20073;-81
2021/03/15 06:18:39;;;;;;;40.95;6.72;;;4.00;97.90;;;;;;4983669;28;20149;-83
2021/03/15 06:21:09;;;;;;;40.95;6.30;;;4.10;97.90;;;;;;4960323;28;20095;-82
2021/03/15 06:23:36;;;;;;;41.95;6.20;;;4.00;97.90;;;;;;4973087;28;20085;-82
2021/03/15 06:26:03;;;;;;;53.45;5.90;;;4.10;97.90;;;;;;4976247;28;20046;-82
2021/03/15 06:28:29;;;;;;;39.38;6.20;;;4.10;97.90;;;;;;4980327;28;20035;-81
2021/03/15 06:30:55;;;;;;;46.25;5.88;;;4.10;97.90;;;;;;4967146;28;20057;-81
2021/03/15 06:33:22;;;;;;;43.72;6.32;;;4.10;98.00;;;;;;4992451;28;20036;-80
2021/03/15 06:36:17;;;;;;;41.13;6.28;;;4.10;97.90;;;;;;4982407;28;20038;-81
2021/03/15 06:38:45;;;;;;;39.22;5.80;;;4.00;98.00;;;;;;4974854;28;20043;-80
2021/03/15 06:41:11;;;;;;;39.50;5.07;;;4.00;97.90;;;;;;4950485;28;20092;-79
2021/03/15 06:43:39;;;;;;;41.22;5.43;;;4.00;97.90;;;;;;4967913;28;20521;-81
2021/03/15 06:46:05;;;;;;;44.75;5.05;;;4.00;97.90;;;;;;4992334;28;20129;-80
2021/03/15 06:48:31;;;;;;;45.17;4.63;;;4.00;97.90;;;;;;4983673;28;20034;-80
2021/03/15 06:50:57;;;;;;;37.25;4.55;;;4.00;97.90;;;;;;4977328;28;20046;-79
2021/03/15 06:53:35;;;;;;;42.38;4.75;;;4.10;97.90;;;;;;4983323;28;20041;-82
2021/03/15 06:56:00;;;;;;;40.28;4.72;;;4.10;98.00;;;;;;4977123;28;20238;-80
2021/03/15 06:58:33;;;;;;;35.95;4.63;;;4.10;97.90;;;;;;4987737;28;20337;-80
2021/03/15 07:01:18;;;;;;;39.70;5.00;;;4.20;98.00;;;;;;4974723;28;20227;-81
2021/03/15 07:03:47;;;;;;;38.40;4.78;;;4.20;98.00;;;;;;4993196;28;20501;-80
2021/03/15 07:06:15;;;;;;;51.30;4.88;;;4.20;98.00;;;;;;4991536;28;20038;-81
2021/03/15 07:08:41;;;;;;;34.13;4.70;;;4.20;98.00;;;;;;4989597;28;20042;-81
2021/03/15 07:11:28;;;;;;;52.17;5.88;;;4.30;98.00;;;;;;4988734;28;20500;-82
2021/03/15 07:13:53;;;;;;;49.78;4.90;;;4.50;98.10;;;;;;4991361;28;20108;-79
2021/03/15 07:16:31;;;;;;;36.38;4.53;;;4.50;98.00;;;;;;5009644;28;20031;-83
2021/03/15 07:18:58;;;;;;;37.25;5.00;;;4.60;98.00;;;;;;4994181;28;20054;-82
2021/03/15 07:21:38;;;;;;;38.03;4.65;;;4.70;98.20;;;;;;4991822;28;20035;-82
2021/03/15 07:24:11;;;;;;;36.28;4.65;;;4.70;98.00;;;;;;4980045;28;20045;-81
2021/03/15 07:26:46;;;;;;;34.38;5.00;;;4.80;98.00;;;;;;4983655;28;20042;-84
2021/03/15 07:29:17;;;;;;;44.13;5.55;;;4.80;98.00;;;;;;4981235;28;20382;-82
2021/03/15 07:31:47;;;;;;;40.70;4.35;;;4.90;98.00;;;;;;4986778;28;20475;-82
2021/03/15 07:34:15;;;;;;;42.95;4.75;;;4.90;97.90;;;;;;4975051;28;20034;-79
2021/03/15 07:36:54;;;;;;;52.92;5.38;;;5.00;97.90;;;;;;4989544;28;20034;-80
2021/03/15 07:39:22;;;;;;;44.75;4.97;;;5.10;98.00;;;;;;4991275;28;20042;-84
2021/03/15 07:41:50;;;;;;;51.60;5.60;;;5.10;97.90;;;;;;4984644;28;20541;-82
2021/03/15 07:44:33;;;;;;;40.47;4.10;;;5.20;97.90;;;;;;4984008;28;20090;-84
2021/03/15 07:47:04;;;;;;;50.28;5.53;;;5.20;97.90;;;;;;4989777;28;20045;-82
2021/03/15 07:49:38;;;;;;;49.30;5.75;;;5.30;97.90;;;;;;4971165;28;20038;-82
2021/03/15 07:52:12;;;;;;;31.92;4.45;;;5.40;97.90;;;;;;4935942;28;22090;-79
2021/03/15 07:54:41;;;;;;;50.13;5.57;;;5.40;97.80;;;;;;4995930;28;20111;-83
2021/03/15 07:57:19;;;;;;;45.63;4.53;;;5.40;97.80;;;;;;4974152;28;20092;-81
2021/03/15 07:59:47;;;;;;;46.42;4.85;;;5.40;97.80;;;;;;4981005;28;20041;-83
2021/03/15 08:02:16;;;;;;;40.88;4.68;;;5.40;97.80;;;;;;4984821;28;20039;-84
2021/03/15 08:04:42;;;;;;;47.15;5.38;;;5.50;97.80;;;;;;4960825;28;20504;-81
2021/03/15 08:07:10;;;;;;;43.70;4.85;;;5.40;97.70;;;;;;4963079;28;20045;-83
2021/03/15 08:09:36;;;;;;;33.97;4.38;;;5.50;97.80;;;;;;4955082;28;20866;-85
2021/03/15 08:12:07;;;;;;;43.70;4.65;;;5.50;97.80;;;;;;4968629;28;20105;-82
2021/03/15 08:14:36;;;;;;;37.08;4.80;;;5.50;97.70;;;;;;4983228;28;20053;-83
2021/03/15 08:17:03;;;;;;;43.50;4.63;;;5.40;97.70;;;;;;4982002;28;20429;-85
2021/03/15 08:19:31;;;;;;;27.13;4.53;;;5.50;97.70;;;;;;4946640;28;20047;-82
2021/03/15 08:22:01;;;;;;;40.72;4.30;;;5.40;97.70;;;;;;4960967;28;20030;-81
2021/03/15 08:24:27;;;;;;;48.25;4.65;;;5.50;97.70;;;;;;4983514;28;20034;-82
2021/03/15 08:26:55;;;;;;;39.35;4.30;;;5.50;97.70;;;;;;4968794;28;20054;-81
2021/03/15 08:29:21;;;;;;;38.20;4.78;;;5.60;97.80;;;;;;4981106;28;20035;-80
2021/03/15 08:31:49;;;;;;;53.55;4.75;;;5.60;97.80;;;;;;4979093;28;20466;-80
2021/03/15 08:34:16;;;;;;;60.20;5.30;;;5.70;97.80;;;;;;4975905;28;20052;-80
2021/03/15 08:36:44;;;;;;;36.45;5.00;;;5.80;97.90;;;;;;4963695;28;20050;-81
2021/03/15 08:39:30;;;;;;;32.78;4.15;;;5.80;97.80;;;;;;4978551;28;20038;-85
2021/03/15 08:42:22;;;;;;;30.92;3.63;;;5.80;97.70;;;;;;4979554;28;20042;-81
2021/03/15 08:44:49;;;;;;;38.70;5.05;;;5.80;97.60;;;;;;4976938;28;20224;-79
2021/03/15 08:47:51;;;;;;;56.63;5.57;;;5.90;97.70;;;;;;4969856;28;20035;-80
2021/03/15 08:50:45;;;;;;;35.30;4.45;;;5.90;97.70;;;;;;4983341;28;20474;-82
2021/03/15 08:53:11;;;;;;;45.97;4.90;;;6.00;97.80;;;;;;4993988;28;20549;-80
2021/03/15 08:55:48;;;;;;;35.95;3.83;;;6.00;97.70;;;;;;4994586;28;20030;-82
2021/03/15 08:58:36;;;;;;;39.15;5.07;;;6.10;97.80;;;;;;4978992;28;20043;-82
2021/03/15 09:01:08;;;;;;;34.90;3.63;;;6.30;97.70;;;;;;4984224;28;20030;-85
2021/03/15 09:03:54;;;;;;;22.40;3.33;;;6.30;97.70;;;;;;4980788;28;20271;-82
2021/03/15 09:06:37;;;;;;;22.13;2.90;;;6.30;97.40;;;;;;4979594;28;20041;-84
2021/03/15 09:09:24;;;;;;;25.83;2.83;;;6.20;97.30;;;;;;4985421;28;20189;-83
2021/03/15 09:11:52;;;;;;;22.38;3.33;;;6.20;97.20;;;;;;4970817;28;20038;-86
2021/03/15 09:14:20;;;;;;;24.13;2.60;;;6.20;97.20;;;;;;4961793;28;20034;-84
2021/03/15 09:16:49;;;;;;;22.02;2.42;;;6.30;97.30;;;;;;4979224;28;20129;-85
2021/03/15 09:19:18;;;;;;;17.83;2.60;;;6.30;97.30;;;;;;4976825;28;20157;-85
2021/03/15 09:21:50;;;;;;;18.33;2.45;;;6.50;97.40;;;;;;4977709;28;20034;-84
2021/03/15 09:24:40;;;;;;;24.67;2.90;;;6.50;97.20;;;;;;4971463;28;20031;-84
2021/03/15 09:27:08;;;;;;;19.02;1.95;;;6.60;97.00;;;;;;4985228;28;20495;-84
2021/03/15 09:29:35;;;;;;;15.40;2.35;;;6.70;97.10;;;;;;4984366;28;20046;-85
2021/03/15 09:32:06;;;;;;;17.58;2.38;;;6.90;97.10;;;;;;4989151;28;20050;-87
2021/03/15 09:34:33;;;;;;;22.80;2.65;;;7.00;96.70;;;;;;4989530;28;20100;-88
2021/03/15 09:37:00;;;;;;;18.25;2.78;;;7.00;96.60;;;;;;4972905;28;20125;-86
2021/03/15 09:39:29;;;;;;;12.93;2.13;;;7.10;96.40;;;;;;4980180;28;20129;-86
2021/03/15 09:41:59;;;;;;;18.83;3.17;;;7.20;96.50;;;;;;4984699;28;20356;-86
2021/03/15 09:44:31;;;;;;;22.02;2.78;;;7.20;96.30;;;;;;4987682;28;20034;-87
2021/03/15 09:46:58;;;;;;;20.05;3.80;;;7.30;96.40;;;;;;4986298;28;20069;-88
2021/03/15 09:49:32;;;;;;;18.33;3.05;;;7.20;96.20;;;;;;5002301;28;20050;-87
2021/03/15 09:52:18;;;;;;;22.60;2.72;;;7.20;96.10;;;;;;4990997;28;20041;-87
2021/03/15 09:54:47;;;;;;;23.83;2.80;;;7.20;96.00;;;;;;4981067;28;20505;-88
2021/03/15 09:57:14;;;;;;;20.35;2.60;;;7.20;95.80;;;;;;4969475;28;20156;-87
2021/03/15 09:59:40;;;;;;;14.13;2.45;;;7.20;95.40;;;;;;4951840;28;20458;-88
2021/03/15 10:02:06;;;;;;;19.00;3.22;;;7.20;95.30;;;;;;4994698;28;20121;-89
2021/03/15 10:04:37;;;;;;;20.65;2.92;;;7.20;95.50;;;;;;4987021;28;20030;-86
2021/03/15 10:07:08;;;;;;;24.67;2.58;;;7.20;95.60;;;;;;4970125;28;20069;-86
2021/03/15 10:09:42;;;;;;;29.92;2.92;;;7.20;95.50;;;;;;4989541;28;20049;-87
2021/03/15 10:12:29;;;;;;;19.65;3.05;;;7.20;95.70;;;;;;4987226;28;20030;-85
2021/03/15 10:14:59;;;;;;;20.02;2.88;;;7.20;95.70;;;;;;4942042;28;20113;-87
2021/03/15 10:17:25;;;;;;;22.13;3.25;;;7.10;95.60;;;;;;4982480;28;20501;-85
2021/03/15 10:19:52;;;;;;;20.55;3.55;;;7.10;95.60;;;;;;4961533;28;20045;-86
2021/03/15 10:22:19;;;;;;;23.48;3.08;;;7.10;95.50;;;;;;4976403;28;20035;-86
2021/03/15 10:24:49;;;;;;;30.55;3.38;;;7.10;95.80;;;;;;4965182;28;20046;-89
2021/03/15 10:27:25;;;;;;;23.17;3.97;;;7.30;95.70;;;;;;4978764;28;20049;-89
2021/03/15 10:30:01;;;;;;;22.27;2.97;;;7.40;95.00;;;;;;4994789;28;20494;-86
2021/03/15 10:32:29;;;;;;;23.80;3.90;;;7.40;95.10;;;;;;4981751;28;20135;-91
2021/03/15 10:34:58;;;;;;;27.65;3.80;;;7.50;95.30;;;;;;4984415;28;20038;-86
2021/03/15 10:37:25;;;;;;;27.02;3.83;;;7.50;94.80;;;;;;4977772;28;20040;-86
2021/03/15 10:39:53;;;;;;;26.45;3.97;;;7.50;95.00;;;;;;4976773;28;20057;-87
2021/03/15 10:42:21;;;;;;;26.80;4.07;;;7.60;95.00;;;;;;4980730;28;20089;-86
2021/03/15 10:44:48;;;;;;;23.50;3.08;;;7.60;94.70;;;;;;4968701;28;20042;-89
2021/03/15 10:47:15;;;;;;;32.15;4.13;;;7.70;94.10;;;;;;4974449;28;20034;-88
2021/03/15 10:49:42;;;;;;;32.28;3.70;;;7.60;94.20;;;;;;4988691;28;20046;-90
2021/03/15 10:52:24;;;;;;;30.23;3.78;;;7.50;94.30;;;;;;4982872;28;20041;-90
2021/03/15 10:54:50;;;;;;;29.63;4.82;;;7.50;94.50;;;;;;4972659;28;20041;-88
2021/03/15 10:57:19;;;;;;;30.48;3.60;;;7.40;94.20;;;;;;4986315;28;20511;-87
2021/03/15 10:59:47;;;;;;;26.98;3.15;;;7.60;94.60;;;;;;4971268;28;20130;-92
2021/03/15 11:02:23;;;;;;;21.02;2.80;;;7.70;94.30;;;;;;4976536;28;20031;-87
2021/03/15 11:04:57;;;;;;;21.70;2.40;;;7.70;93.90;;;;;;4988466;28;20031;-88
2021/03/15 11:07:25;;;;;;;24.70;2.60;;;7.60;93.30;;;;;;4971958;28;20436;-87
2021/03/15 11:09:59;;;;;;;16.35;2.63;;;7.80;93.30;;;;;;4990430;28;20110;-86
2021/03/15 11:12:31;;;;;;;19.63;2.65;;;8.00;93.40;;;;;;4986658;28;20105;-87
2021/03/15 11:15:04;;;;;;;16.70;2.60;;;8.00;92.80;;;;;;4977424;28;20052;-88
2021/03/15 11:17:30;;;;;;;;;;;8.00;92.70;;;;;;4972544;28;20070;-88
2021/03/15 11:19:56;;;;;;;16.73;2.70;;;8.00;92.10;;;;;;4979975;28;20008;-88
2021/03/15 11:22:21;;;;;;;23.60;3.00;;;8.20;93.20;;;;;;4969256;28;20070;-87
2021/03/15 11:24:48;;;;;;;25.45;2.42;;;8.20;93.00;;;;;;4963967;28;20077;-88
2021/03/15 11:27:14;;;;;;;21.85;3.65;;;8.20;92.40;;;;;;4965556;28;20039;-88
2021/03/15 11:29:42;;;;;;;21.50;3.22;;;8.00;92.40;;;;;;4960619;28;20030;-88
2021/03/15 11:32:13;;;;;;;21.52;3.28;;;7.90;92.60;;;;;;4970346;28;20030;-86
2021/03/15 11:34:47;;;;;;;21.85;2.85;;;7.90;92.80;;;;;;4974999;28;20206;-87
2021/03/15 11:37:13;;;;;;;23.20;3.03;;;7.70;92.30;;;;;;4974479;28;20038;-88
2021/03/15 11:39:40;;;;;;;19.58;2.38;;;7.60;92.50;;;;;;4984025;28;20086;-89
2021/03/15 11:42:30;;;;;;;25.95;3.00;;;7.60;93.00;;;;;;4983398;28;20486;-89
2021/03/15 11:44:56;;;;;;;22.55;3.10;;;7.80;92.80;;;;;;4976148;28;20215;-87
2021/03/15 11:47:22;;;;;;;30.35;3.28;;;7.80;92.80;;;;;;4962019;28;20100;-88
2021/03/15 11:49:47;;;;;;;23.02;3.08;;;7.80;92.80;;;;;;4951000;28;20054;-87
2021/03/15 11:52:26;;;;;;;29.50;3.30;;;7.80;92.40;;;;;;4973937;28;20563;-88
2021/03/15 11:54:52;;;;;;;24.92;3.45;;;7.80;92.40;;;;;;4972449;28;20117;-90
2021/03/15 11:57:19;;;;;;;22.30;3.40;;;7.90;92.90;;;;;;4982830;28;20041;-86
2021/03/15 11:59:44;;;;;;;18.45;3.15;;;7.90;92.50;;;;;;4981768;28;20038;-87
2021/03/15 12:02:10;;;;;;;25.33;3.47;;;7.90;92.60;;;;;;4980661;28;20085;-88
2021/03/15 12:04:36;;;;;;;29.80;3.22;;;8.10;92.80;;;;;;4948905;28;20546;-87
2021/03/15 12:07:03;;;;;;;30.67;3.65;;;8.20;92.90;;;;;;4964975;28;20779;-86
2021/03/15 12:09:29;;;;;;;25.83;3.20;;;8.30;92.90;;;;;;4963525;28;20278;-87
2021/03/15 12:11:55;;;;;;;28.67;3.45;;;8.40;92.40;;;;;;4976284;28;20069;-88
2021/03/15 12:14:21;;;;;;;23.83;3.75;;;8.40;92.10;;;;;;4965126;28;20062;-88
2021/03/15 12:16:47;;;;;;;28.80;3.63;;;8.40;92.50;;;;;;4972395;28;20622;-86
2021/03/15 12:19:14;;;;;;;26.38;4.80;;;8.30;92.10;;;;;;4968809;28;20034;-86
2021/03/15 12:21:41;;;;;;;22.65;3.38;;;8.30;92.10;;;;;;4971371;28;20187;-88
2021/03/15 12:24:07;;;;;;;21.90;3.40;;;8.30;92.20;;;;;;4983276;28;20157;-86
2021/03/15 12:26:35;;;;;;;32.30;3.83;;;8.30;92.20;;;;;;4942168;28;20027;-87
2021/03/15 12:29:02;;;;;;;20.92;3.08;;;8.50;92.60;;;;;;4986606;28;20477;-87
2021/03/15 12:31:28;;;;;;;25.27;3.38;;;8.50;92.10;;;;;;4973536;28;20026;-88
2021/03/15 12:33:54;;;;;;;27.38;3.20;;;8.40;92.10;;;;;;4987908;28;20117;-85
2021/03/15 12:36:20;;;;;;;21.40;3.70;;;8.30;91.70;;;;;;4973842;28;20121;-84
2021/03/15 12:38:46;;;;;;;22.75;3.50;;;8.30;91.90;;;;;;4977341;28;20129;-87
2021/03/15 12:41:12;;;;;;;22.38;3.67;;;8.40;92.20;;;;;;5009067;28;20035;-87
2021/03/15 12:43:38;;;;;;;21.13;3.45;;;8.60;92.20;;;;;;4973995;28;20424;-88
2021/03/15 12:46:03;;;;;;;25.65;3.38;;;8.60;91.60;;;;;;4987342;28;20030;-88
2021/03/15 12:48:29;;;;;;;23.90;3.42;;;8.50;91.50;;;;;;4967029;28;20086;-87
2021/03/15 12:50:56;;;;;;;22.92;3.65;;;8.60;91.50;;;;;;4974425;28;20053;-88
2021/03/15 12:53:22;;;;;;;17.70;3.10;;;8.60;91.90;;;;;;4968135;28;20431;-88
2021/03/15 12:55:47;;;;;;;30.48;3.65;;;8.70;92.00;;;;;;4996227;28;20125;-86
2021/03/15 12:58:16;;;;;;;19.08;2.70;;;8.70;91.40;;;;;;4951798;28;20050;-87
2021/03/15 13:00:41;;;;;;;20.17;3.28;;;8.70;91.20;;;;;;4964295;28;20087;-90
2021/03/15 13:03:07;;;;;;;27.00;3.40;;;8.50;90.60;;;;;;4948906;28;20070;-87
2021/03/15 13:05:33;;;;;;;19.00;3.00;;;8.40;91.00;;;;;;4967113;28;20056;-88
2021/03/15 13:07:59;;;;;;;24.00;3.65;;;8.30;91.10;;;;;;4957487;28;20065;-87